VTUK

Details ICAO VTUK (KKC)
Name Khon Kaen
Region Thailand
Timezone Asia/Bangkok (UTC+7.0)
Plans Departing 38
Arriving 49
Stats Elevation 670 ft / 204 m (AMSL)
Location 16.466628° 102.783663°
Runways 1
Magnetic Variation 0.809° W
Sunrise 2018-05-24 22:37:34 UTC / 2018-05-25 05:37:34 Local
Sunset 2018-05-25 11:36:51 UTC / 2018-05-25 18:36:51 Local
Advertisement - Login to hide

Runways

ID Width Length Bearing (true) Bearing (mag) Surface Threshold Offset Overrun Length
03 148 ft / 45 m 10,043 ft / 3,061 m 32.69° 33.50° Asphalt 492 ft / 150 m 0 ft / 0 m
21 148 ft / 45 m 10,043 ft / 3,061 m 212.70° 213.51° Asphalt 492 ft / 150 m 0 ft / 0 m

Map

Weather


0- 5 10 15 20 25 30 35+ Temperature / ° C

Clouds and Precipitation
Forecast for 2018-05-25 06:00 UTC. Updated 34 minutes ago

Ground ~20,000 ft ~40,000 ft Winds

METAR

VTUK 250500Z VRB05KT 9999 SCT025 SCT080 32/25 Q1008 NOSIG

TAF

TAF VTUK 242300Z 2500/2524 20003KT 7000 FEW020 TEMPO 2506/2513 5000 TSRA FEW018CB

Frequencies

Tower 122.25 MHz TWR
Approach 123.40 MHz APP
Warning: Do not use this data for real-world aviation or navigation. No guarantee of current accuracy is given.